createdAt,value
2019-06-07T00:02:01.624Z,64.50
2019-06-07T00:04:31.985Z,65.10
2019-06-07T00:07:02.277Z,64.70
2019-06-07T00:09:36.552Z,65.40
2019-06-07T00:12:09.083Z,65.60
2019-06-07T00:14:38.817Z,65.00
2019-06-07T00:17:11.206Z,64.80
2019-06-07T00:19:41.701Z,64.80
2019-06-07T00:22:18.363Z,65.10
2019-06-07T00:24:44.599Z,65.90
2019-06-07T00:27:15.179Z,66.40
2019-06-07T00:29:46.214Z,66.30
2019-06-07T00:32:19.112Z,66.30
2019-06-07T00:34:48.932Z,66.50
2019-06-07T00:37:29.416Z,66.80
2019-06-07T00:40:14.112Z,66.90
2019-06-07T00:42:34.476Z,67.20
2019-06-07T00:45:05.198Z,67.40
2019-06-07T00:47:35.847Z,67.50
2019-06-07T00:50:09.022Z,67.90
2019-06-07T00:55:27.366Z,68.10
2019-06-07T00:57:56.093Z,68.30
2019-06-07T01:00:31.980Z,68.60
2019-06-07T01:03:12.729Z,68.60
2019-06-07T01:05:43.808Z,68.40
2019-06-07T01:08:16.676Z,68.60
2019-06-07T01:10:53.445Z,68.40
2019-06-07T01:13:24.132Z,69.30
2019-06-07T01:15:52.993Z,68.40
2019-06-07T01:18:37.705Z,68.50
2019-06-07T01:20:55.359Z,68.70
2019-06-07T01:23:59.422Z,68.60
2019-06-07T01:25:57.692Z,68.70
2019-06-07T01:28:30.178Z,68.70
2019-06-07T01:30:59.939Z,68.80
2019-06-07T01:33:49.913Z,69.10
2019-06-07T01:36:02.718Z,69.10
2019-06-07T01:38:33.044Z,69.10
2019-06-07T01:41:05.066Z,69.40
2019-06-07T01:43:35.336Z,69.60
2019-06-07T01:46:06.008Z,69.40
2019-06-07T01:48:49.570Z,69.60
2019-06-07T01:51:12.011Z,69.80
2019-06-07T01:53:42.507Z,69.50
2019-06-07T01:56:13.160Z,69.50
2019-06-07T01:58:45.867Z,69.80
2019-06-07T02:01:19.176Z,69.90
2019-06-07T02:03:48.502Z,70.10
2019-06-07T02:06:31.920Z,70.00
2019-06-07T02:09:00.165Z,70.00
2019-06-07T02:11:31.904Z,70.00
2019-06-07T02:14:09.374Z,69.90
2019-06-07T02:16:40.010Z,69.90
2019-06-07T02:19:10.592Z,70.00
2019-06-07T02:21:41.219Z,70.00
2019-06-07T02:24:12.943Z,70.00
2019-06-07T02:26:44.689Z,70.10
2019-06-07T02:29:15.204Z,70.20
2019-06-07T02:31:48.422Z,70.00
2019-06-07T02:34:37.955Z,70.10
2019-06-07T02:36:59.798Z,70.20
2019-06-07T02:39:36.833Z,70.30
2019-06-07T02:42:04.689Z,70.50
2019-06-07T02:44:39.729Z,70.60
2019-06-07T02:47:12.109Z,70.70
2019-06-07T02:49:44.834Z,70.70
2019-06-07T02:52:15.533Z,70.80
2019-06-07T02:54:45.990Z,70.80
2019-06-07T02:57:16.322Z,70.60
2019-06-07T03:00:06.507Z,70.40
2019-06-07T03:02:20.823Z,70.40
2019-06-07T03:04:51.632Z,70.40
2019-06-07T03:07:22.362Z,70.30
2019-06-07T03:09:53.470Z,70.30
2019-06-07T03:12:26.553Z,70.50
2019-06-07T03:14:58.450Z,70.60
2019-06-07T03:18:02.658Z,70.50
2019-06-07T03:20:35.123Z,70.40
2019-06-07T03:23:07.038Z,70.30
2019-06-07T03:25:41.114Z,70.20
2019-06-07T03:28:11.407Z,70.00
2019-06-07T03:30:59.596Z,70.10
2019-06-07T03:33:14.348Z,70.10
2019-06-07T03:35:45.171Z,69.90
2019-06-07T03:38:15.781Z,69.60
2019-06-07T03:40:46.665Z,69.70
2019-06-07T03:43:17.062Z,69.90
2019-06-07T03:45:47.563Z,70.00
2019-06-07T03:48:17.928Z,70.00
2019-06-07T03:51:03.901Z,70.00
2019-06-07T03:53:21.086Z,70.10
2019-06-07T03:55:52.984Z,70.10
2019-06-07T03:58:36.453Z,70.00
2019-06-07T04:00:58.719Z,70.10
2019-06-07T04:03:38.251Z,70.10
2019-06-07T04:06:00.203Z,70.50
2019-06-07T04:08:33.508Z,70.50
2019-06-07T04:11:06.049Z,70.60
2019-06-07T04:13:39.836Z,70.60
2019-06-07T04:16:09.419Z,70.70
2019-06-07T04:18:42.472Z,70.80
2019-06-07T04:21:13.056Z,70.90
2019-06-07T04:23:45.652Z,70.70
2019-06-07T04:26:15.879Z,70.40
2019-06-07T04:31:18.740Z,70.50
2019-06-07T04:33:49.508Z,70.50
2019-06-07T04:36:39.217Z,70.40
2019-06-07T04:38:55.267Z,70.30
2019-06-07T04:41:28.672Z,70.40
2019-06-07T04:44:02.550Z,70.30
2019-06-07T04:46:35.298Z,70.40
2019-06-07T04:49:05.843Z,70.20
2019-06-07T04:51:41.149Z,70.30
2019-06-07T04:54:12.982Z,70.30
2019-06-07T04:57:05.164Z,70.50
2019-06-07T05:00:11.184Z,70.50
2019-06-07T05:02:14.971Z,70.30
2019-06-07T05:04:56.039Z,70.20
2019-06-07T05:07:34.595Z,70.00
2019-06-07T05:10:06.021Z,69.90
2019-06-07T05:12:44.170Z,70.00
2019-06-07T05:15:14.390Z,70.00
2019-06-07T05:17:47.692Z,70.20
2019-06-07T05:20:18.169Z,70.00
2019-06-07T05:22:48.962Z,69.90
2019-06-07T05:25:21.181Z,70.10
2019-06-07T05:27:51.474Z,69.00
2019-06-07T05:31:03.109Z,68.80
2019-06-07T05:33:10.445Z,68.50
2019-06-07T05:35:44.344Z,68.60
2019-06-07T05:38:14.639Z,68.70
2019-06-07T05:40:48.599Z,68.60
2019-06-07T05:43:29.730Z,68.60
2019-06-07T05:46:00.385Z,68.60
2019-06-07T05:48:32.338Z,68.80
2019-06-07T05:51:02.759Z,68.70
2019-06-07T05:53:38.960Z,68.30
2019-06-07T05:56:08.387Z,68.20
2019-06-07T05:58:41.869Z,67.80
2019-06-07T06:01:42.010Z,67.20
2019-06-07T06:03:50.425Z,66.90
2019-06-07T06:06:20.037Z,66.50
2019-06-07T06:08:52.359Z,66.50
2019-06-07T06:11:43.058Z,66.40
2019-06-07T06:14:06.761Z,65.40
2019-06-07T06:16:39.560Z,64.60
2019-06-07T06:19:14.234Z,63.60
2019-06-07T06:21:49.215Z,62.60
2019-06-07T06:24:25.636Z,62.20
2019-06-07T06:27:18.569Z,61.70
2019-06-07T06:29:42.318Z,62.50
2019-06-07T06:32:52.986Z,61.30
2019-06-07T06:35:07.869Z,60.50
2019-06-07T06:37:48.852Z,59.80
2019-06-07T06:40:18.737Z,59.40
2019-06-07T06:42:50.626Z,59.40
2019-06-07T06:45:35.674Z,58.90
2019-06-07T06:48:21.225Z,58.70
2019-06-07T06:50:53.461Z,58.30
2019-06-07T06:53:29.197Z,58.10
2019-06-07T06:56:11.221Z,57.40
2019-06-07T06:59:35.197Z,56.80
2019-06-07T07:01:31.327Z,56.40
2019-06-07T07:04:13.225Z,56.20
2019-06-07T07:07:12.437Z,56.10
2019-06-07T07:10:14.668Z,56.10
2019-06-07T07:12:51.209Z,55.90
2019-06-07T07:15:31.283Z,55.70
2019-06-07T07:18:14.058Z,55.70
2019-06-07T07:20:50.636Z,55.80
2019-06-07T07:23:11.809Z,55.60
2019-06-07T07:25:49.492Z,55.10
2019-06-07T07:28:22.324Z,54.80
2019-06-07T07:30:57.242Z,54.90
2019-06-07T07:36:37.485Z,55.80
2019-06-07T07:38:56.593Z,56.30
2019-06-07T07:41:25.006Z,56.50
2019-06-07T07:44:07.673Z,56.50
2019-06-07T07:46:39.461Z,56.90
2019-06-07T07:49:10.802Z,57.40
2019-06-07T07:51:43.964Z,57.30
2019-06-07T07:54:14.472Z,57.20
2019-06-07T07:56:49.095Z,57.20
2019-06-07T07:59:40.633Z,57.20
2019-06-07T08:01:55.952Z,56.80
2019-06-07T08:05:12.300Z,56.60
2019-06-07T08:07:03.511Z,56.60
2019-06-07T08:10:48.037Z,56.50
2019-06-07T08:12:19.754Z,56.40
2019-06-07T08:15:03.560Z,55.20
2019-06-07T08:17:50.730Z,55.20
2019-06-07T08:20:20.318Z,54.70
2019-06-07T08:23:05.695Z,54.20
2019-06-07T08:25:46.812Z,53.50
2019-06-07T08:29:44.803Z,53.10
2019-06-07T08:41:53.510Z,53.10
2019-06-07T08:41:53.781Z,53.30
2019-06-07T08:43:55.245Z,53.20
2019-06-07T08:46:43.870Z,53.40
2019-06-07T08:49:14.380Z,53.00
2019-06-07T08:59:18.165Z,52.50
2019-06-07T09:02:23.645Z,52.60
2019-06-07T09:05:16.351Z,52.50
2019-06-07T09:08:38.796Z,52.80
2019-06-07T09:30:22.632Z,53.10
2019-06-07T09:56:21.128Z,53.40
2019-06-07T10:11:31.671Z,53.80
2019-06-07T10:14:08.775Z,53.70
2019-06-07T10:16:46.716Z,53.90
2019-06-07T10:19:30.836Z,53.80
2019-06-07T10:22:03.747Z,53.60
2019-06-07T10:24:37.771Z,53.30
2019-06-07T10:27:22.501Z,53.40
2019-06-07T10:30:10.420Z,53.20
2019-06-07T10:32:40.891Z,53.50
2019-06-07T10:35:16.365Z,53.50
2019-06-07T10:37:45.727Z,53.40
2019-06-07T10:40:17.976Z,53.00
2019-06-07T10:42:48.436Z,53.10
2019-06-07T10:45:19.405Z,52.70
2019-06-07T10:47:49.619Z,52.60
2019-06-07T10:50:22.209Z,52.80
2019-06-07T10:52:52.921Z,52.60
2019-06-07T10:55:28.279Z,52.90
2019-06-07T10:58:03.333Z,52.80
2019-06-07T11:01:05.223Z,52.80
2019-06-07T11:03:35.159Z,52.70
2019-06-07T11:06:14.299Z,52.30
2019-06-07T11:08:52.829Z,51.80
2019-06-07T11:11:30.511Z,51.60
2019-06-07T11:14:04.394Z,51.80
2019-06-07T11:17:28.531Z,51.80
2019-06-07T11:20:14.431Z,51.80
2019-06-07T11:22:51.032Z,51.90
2019-06-07T11:25:28.002Z,51.60
2019-06-07T11:28:06.326Z,51.30
2019-06-07T11:30:42.697Z,51.30
2019-06-07T11:33:36.120Z,51.10
2019-06-07T11:36:15.293Z,50.80
2019-06-07T11:38:46.004Z,50.80
2019-06-07T11:41:22.420Z,51.00
2019-06-07T11:43:54.832Z,51.30
2019-06-07T11:46:54.574Z,51.40
2019-06-07T11:49:20.293Z,51.50
2019-06-07T12:06:51.629Z,52.30
2019-06-07T12:09:28.065Z,52.40
2019-06-07T12:47:46.562Z,50.80
2019-06-07T13:00:09.698Z,50.90
2019-06-07T13:02:45.861Z,50.90
2019-06-07T13:05:17.866Z,50.90
2019-06-07T13:07:48.354Z,50.90
2019-06-07T13:10:26.343Z,51.10
2019-06-07T13:34:59.998Z,50.40
2019-06-07T13:37:36.039Z,50.40
2019-06-07T13:41:32.683Z,50.40
2019-06-07T13:43:54.849Z,50.80
2019-06-07T13:46:23.134Z,50.80
2019-06-07T14:04:49.488Z,50.80
2019-06-07T14:19:31.223Z,50.80
2019-06-07T14:22:01.902Z,50.80
2019-06-07T14:24:39.255Z,50.80
2019-06-07T14:27:09.599Z,50.70
2019-06-07T14:29:44.046Z,50.80
2019-06-07T14:32:19.187Z,50.70
2019-06-07T14:34:50.856Z,50.90
2019-06-07T14:37:22.684Z,51.00
2019-06-07T14:39:53.201Z,51.00
2019-06-07T14:42:25.305Z,51.10
2019-06-07T14:45:08.019Z,51.00
2019-06-07T14:47:42.494Z,51.10
2019-06-07T14:50:15.478Z,51.30
2019-06-07T14:52:48.697Z,51.50
2019-06-07T14:55:21.332Z,51.60
2019-06-07T14:57:52.193Z,51.50
2019-06-07T15:00:38.911Z,51.60
2019-06-07T15:03:39.310Z,51.80
2019-06-07T15:05:57.950Z,51.90
2019-06-07T15:08:43.652Z,52.00
2019-06-07T15:11:22.455Z,52.10
2019-06-07T15:14:00.112Z,52.10
2019-06-07T15:16:31.981Z,52.20
2019-06-07T15:19:25.025Z,52.30
2019-06-07T15:22:16.854Z,52.40
2019-06-07T15:24:52.194Z,52.40
2019-06-07T15:27:37.606Z,52.50
2019-06-07T15:30:29.938Z,52.50
2019-06-07T15:33:40.554Z,52.80
2019-06-07T15:36:34.425Z,52.90
2019-06-07T15:42:18.991Z,53.10
2019-06-07T15:44:56.914Z,53.30
2019-06-07T15:47:34.143Z,53.40
2019-06-07T15:50:08.918Z,53.60
2019-06-07T15:52:43.306Z,53.80
2019-06-07T15:55:15.486Z,54.10
2019-06-07T15:57:52.120Z,54.10
2019-06-07T16:00:24.911Z,54.30
2019-06-07T16:02:55.264Z,54.50
2019-06-07T16:05:26.113Z,54.50
2019-06-07T16:07:58.180Z,54.60
2019-06-07T16:10:32.493Z,54.70
2019-06-07T16:13:06.139Z,54.80
2019-06-07T16:15:39.257Z,54.80
2019-06-07T16:18:09.564Z,54.80
2019-06-07T16:20:41.787Z,55.00
2019-06-07T16:23:13.504Z,55.00
2019-06-07T16:25:44.427Z,54.80
2019-06-07T16:28:14.830Z,54.90
2019-06-07T16:30:48.788Z,54.90
2019-06-07T16:33:19.112Z,55.10
2019-06-07T16:35:53.140Z,55.10
2019-06-07T16:38:27.808Z,55.20
2019-06-07T16:40:58.295Z,55.40
2019-06-07T16:43:30.193Z,55.40
2019-06-07T16:46:00.669Z,55.50
2019-06-07T16:48:31.233Z,55.60
2019-06-07T16:51:06.435Z,55.60
2019-06-07T16:53:38.426Z,55.60
2019-06-07T16:56:08.686Z,55.80
2019-06-07T16:58:40.156Z,55.90
2019-06-07T17:01:17.226Z,56.00
2019-06-07T17:03:50.263Z,56.00
2019-06-07T17:06:23.264Z,56.00
2019-06-07T17:08:54.624Z,55.90
2019-06-07T17:11:28.048Z,55.70
2019-06-07T17:14:05.091Z,55.70
2019-06-07T17:16:35.453Z,55.70
2019-06-07T17:19:57.779Z,55.70
2019-06-07T17:21:43.255Z,55.70
2019-06-07T17:24:15.112Z,55.70
2019-06-07T17:26:47.809Z,55.70
2019-06-07T17:29:18.340Z,55.80
2019-06-07T17:31:53.311Z,55.60
2019-06-07T17:34:23.804Z,54.50
2019-06-07T17:36:54.720Z,54.00
2019-06-07T17:39:25.126Z,53.80
2019-06-07T17:42:02.189Z,53.70
2019-06-07T17:44:27.959Z,53.70
2019-06-07T17:47:04.534Z,53.70
2019-06-07T17:49:36.375Z,53.90
2019-06-07T17:52:09.995Z,53.70
2019-06-07T17:54:43.861Z,53.60
2019-06-07T17:57:58.748Z,53.70
2019-06-07T18:03:15.870Z,53.90
2019-06-07T18:05:47.212Z,53.80
2019-06-07T18:08:18.155Z,53.90
2019-06-07T18:10:50.268Z,53.90
2019-06-07T18:13:20.535Z,54.00
2019-06-07T18:16:09.921Z,54.00
2019-06-07T18:18:40.799Z,54.20
2019-06-07T18:21:11.113Z,54.20
2019-06-07T18:23:41.421Z,54.20
2019-06-07T18:26:11.640Z,54.30
2019-06-07T18:28:41.984Z,54.40
2019-06-07T18:31:12.255Z,54.50
2019-06-07T18:33:44.669Z,54.70
2019-06-07T18:36:15.237Z,54.70
2019-06-07T18:38:53.111Z,55.40
2019-06-07T18:41:25.975Z,54.90
2019-06-07T18:43:59.391Z,55.10
2019-06-07T18:46:30.527Z,55.30
2019-06-07T18:49:08.389Z,55.50
2019-06-07T18:51:38.605Z,55.50
2019-06-07T18:54:09.263Z,55.70
2019-06-07T18:56:45.193Z,55.90
2019-06-07T18:59:15.482Z,55.90
2019-06-07T19:01:47.247Z,56.10
2019-06-07T19:04:29.248Z,56.30
2019-06-07T19:07:20.552Z,56.50
2019-06-07T19:10:00.281Z,56.80
2019-06-07T19:12:28.839Z,56.80
2019-06-07T19:15:01.390Z,56.80
2019-06-07T19:17:44.692Z,56.90
2019-06-07T19:20:18.535Z,57.20
2019-06-07T19:22:58.700Z,57.50
2019-06-07T19:25:31.700Z,57.60
2019-06-07T19:28:07.641Z,57.80
2019-06-07T19:30:41.928Z,57.90
2019-06-07T19:33:19.725Z,58.00
2019-06-07T19:35:51.414Z,58.20
2019-06-07T19:38:22.457Z,58.30
2019-06-07T19:40:53.781Z,58.40
2019-06-07T19:43:24.060Z,58.50
2019-06-07T19:45:58.288Z,58.70
2019-06-07T19:48:28.844Z,58.80
2019-06-07T19:50:59.107Z,59.00
2019-06-07T19:53:29.442Z,59.20
2019-06-07T19:56:01.329Z,59.40
2019-06-07T19:58:31.720Z,59.40
2019-06-07T20:01:07.684Z,59.50
2019-06-07T20:03:51.987Z,59.50
2019-06-07T20:06:24.485Z,59.60
2019-06-07T20:08:54.563Z,59.80
2019-06-07T20:11:24.854Z,59.80
2019-06-07T20:13:55.122Z,60.00
2019-06-07T20:16:34.743Z,60.00
2019-06-07T20:19:05.645Z,60.20
2019-06-07T20:21:36.067Z,60.40
2019-06-07T20:24:24.905Z,60.70
2019-06-07T20:26:38.448Z,60.80
2019-06-07T20:29:24.971Z,60.80
2019-06-07T20:31:41.437Z,60.80
2019-06-07T20:34:11.723Z,60.80
2019-06-07T20:36:45.655Z,61.00
2019-06-07T20:39:16.510Z,61.20
2019-06-07T20:41:57.349Z,61.50
2019-06-07T20:44:31.741Z,61.50
2019-06-07T20:47:15.701Z,61.80
2019-06-07T20:50:17.170Z,62.00
2019-06-07T20:52:50.508Z,62.20
2019-06-07T20:55:23.972Z,62.40
2019-06-07T20:57:56.517Z,62.70
2019-06-07T21:00:27.941Z,62.90
2019-06-07T21:02:58.992Z,63.00
2019-06-07T21:05:31.847Z,63.10
2019-06-07T21:08:04.138Z,63.30
2019-06-07T21:10:34.607Z,63.50
2019-06-07T21:13:05.890Z,63.50
2019-06-07T21:15:48.369Z,63.70
2019-06-07T21:18:41.861Z,63.80
2019-06-07T21:21:27.320Z,64.00
2019-06-07T21:24:00.441Z,64.30
2019-06-07T21:26:42.118Z,64.40
2019-06-07T21:29:16.951Z,64.60
2019-06-07T21:32:25.271Z,64.80
2019-06-07T21:35:06.395Z,65.00
2019-06-07T21:37:50.920Z,65.10
2019-06-07T21:40:42.658Z,65.20
2019-06-07T21:43:17.443Z,65.30
2019-06-07T21:46:05.348Z,65.40
2019-06-07T21:48:36.184Z,65.70
2019-06-07T21:51:06.945Z,65.70
2019-06-07T21:53:38.029Z,65.60
2019-06-07T21:56:15.462Z,65.60
2019-06-07T21:58:49.155Z,65.60
2019-06-07T22:01:29.194Z,65.50
2019-06-07T22:03:59.906Z,65.50
2019-06-07T22:07:00.808Z,65.90
2019-06-07T22:10:34.767Z,66.00
2019-06-07T22:12:49.004Z,65.90
2019-06-07T22:15:37.359Z,66.00
2019-06-07T22:18:36.446Z,66.20
2019-06-07T22:21:15.937Z,66.30
2019-06-07T22:23:56.071Z,66.50
2019-06-07T22:27:26.267Z,66.50
2019-06-07T22:32:53.863Z,66.80
2019-06-07T22:35:29.815Z,66.80
2019-06-07T22:38:01.091Z,66.80
2019-06-07T22:40:40.882Z,66.50
2019-06-07T22:43:19.555Z,66.40
2019-06-07T22:45:50.724Z,66.30
2019-06-07T22:48:21.300Z,66.00
2019-06-07T22:50:53.557Z,65.50
2019-06-07T22:53:24.371Z,65.40
2019-06-07T22:56:01.282Z,64.90
2019-06-07T22:58:31.790Z,64.80
2019-06-07T23:01:02.267Z,64.50
2019-06-07T23:03:32.600Z,64.40
2019-06-07T23:06:03.004Z,64.30
2019-06-07T23:08:34.444Z,64.10
2019-06-07T23:11:04.738Z,64.10
2019-06-07T23:13:35.114Z,64.20
2019-06-07T23:16:07.543Z,64.30
2019-06-07T23:18:37.996Z,64.30
2019-06-07T23:21:09.619Z,64.30
2019-06-07T23:23:40.075Z,64.40
2019-06-07T23:26:10.399Z,64.70
2019-06-07T23:28:43.021Z,64.70
2019-06-07T23:31:14.415Z,64.60
2019-06-07T23:33:44.874Z,64.60
2019-06-07T23:36:15.182Z,64.40
2019-06-07T23:38:48.110Z,64.50
2019-06-07T23:41:22.129Z,64.50
2019-06-07T23:43:50.636Z,64.50
2019-06-07T23:46:21.618Z,64.50
2019-06-07T23:48:52.153Z,64.40
2019-06-07T23:51:22.487Z,63.70
2019-06-07T23:53:54.188Z,63.00
2019-06-07T23:56:25.643Z,62.50
2019-06-07T23:58:56.236Z,61.90
